Time;durP1;ratioP1;P1;durP2;ratioP2;P2;SDS_P1;SDS_P2;PMS_P1;PMS_P2;Temp;Humidity;BMP_temperature;BMP_pressure;BME280_temperature;BME280_humidity;BME280_pressure;Samples;Min_cycle;Max_cycle;Signal;HPM_P1;HPM_P2
2022/03/21 00:00:40;;;;;;;1.50;1.10;;;9.20;98.20;;;;;;5085082;28;20488;-72
2022/03/21 00:03:08;;;;;;;1.50;1.30;;;9.10;98.20;;;;;;5087685;28;20461;-72
2022/03/21 00:05:41;;;;;;;1.50;1.10;;;9.10;98.20;;;;;;5088600;28;20854;-72
2022/03/21 00:08:11;;;;;;;1.50;1.20;;;9.10;98.20;;;;;;5088731;28;20853;-72
2022/03/21 00:10:38;;;;;;;1.50;1.10;;;9.10;98.20;;;;;;5088699;28;20459;-72
2022/03/21 00:13:06;;;;;;;1.50;1.20;;;9.00;98.20;;;;;;5088348;28;20473;-72
2022/03/21 00:15:33;;;;;;;1.50;1.20;;;9.00;98.20;;;;;;5088746;28;20484;-72
2022/03/21 00:18:01;;;;;;;1.50;1.20;;;9.00;98.20;;;;;;5088386;28;20547;-73
2022/03/21 00:20:29;;;;;;;1.57;1.47;;;9.00;98.20;;;;;;5088797;28;20541;-72
2022/03/21 00:22:56;;;;;;;1.50;1.20;;;9.00;98.20;;;;;;5088454;28;20468;-72
2022/03/21 00:25:25;;;;;;;1.50;1.10;;;9.00;98.20;;;;;;5087176;28;20500;-72
2022/03/21 00:27:51;;;;;;;1.50;1.20;;;9.00;98.20;;;;;;5087546;28;20483;-72
2022/03/21 00:30:18;;;;;;;1.50;1.20;;;9.00;98.20;;;;;;5088823;28;20957;-72
2022/03/21 00:32:46;;;;;;;1.50;1.20;;;9.00;98.20;;;;;;5089004;28;20468;-72
2022/03/21 00:35:15;;;;;;;1.50;1.10;;;9.00;98.20;;;;;;5088294;28;20988;-72
2022/03/21 00:37:42;;;;;;;1.50;1.20;;;9.00;98.20;;;;;;5093712;27;20573;-72
2022/03/21 00:40:10;;;;;;;1.43;1.10;;;9.00;98.20;;;;;;5082192;28;20495;-72
2022/03/21 00:42:40;;;;;;;1.50;1.20;;;9.00;98.20;;;;;;5083603;28;20461;-72
2022/03/21 00:45:10;;;;;;;1.50;1.33;;;9.00;98.20;;;;;;5085632;28;20472;-72
2022/03/21 00:47:38;;;;;;;1.50;1.20;;;8.90;98.20;;;;;;5089040;28;20460;-73
2022/03/21 00:50:05;;;;;;;1.50;1.10;;;8.90;98.20;;;;;;5088642;28;20463;-72
2022/03/21 00:52:32;;;;;;;1.50;1.20;;;8.80;98.20;;;;;;5087256;28;20456;-73
2022/03/21 00:54:59;;;;;;;1.50;1.20;;;8.80;98.20;;;;;;5087778;28;20491;-73
2022/03/21 00:57:26;;;;;;;1.50;1.20;;;8.70;98.20;;;;;;5084152;27;20487;-72
2022/03/21 00:59:54;;;;;;;1.50;1.20;;;8.70;98.20;;;;;;5084115;28;20810;-73
2022/03/21 01:02:21;;;;;;;1.50;1.10;;;8.70;98.20;;;;;;5087485;28;20464;-73
2022/03/21 01:04:48;;;;;;;1.47;1.20;;;8.70;98.20;;;;;;5088055;28;20476;-73
2022/03/21 01:07:14;;;;;;;1.50;1.20;;;8.70;98.20;;;;;;5089086;27;20486;-73
2022/03/21 01:09:41;;;;;;;1.50;1.20;;;8.70;98.20;;;;;;5086193;28;20463;-72
2022/03/21 01:12:09;;;;;;;1.50;1.10;;;8.70;98.20;;;;;;5087868;28;20456;-73
2022/03/21 01:14:36;;;;;;;1.50;1.20;;;8.70;98.20;;;;;;5088201;28;20710;-73
2022/03/21 01:17:04;;;;;;;1.50;1.23;;;8.70;98.20;;;;;;5087583;27;20877;-73
2022/03/21 01:19:31;;;;;;;1.50;1.20;;;8.70;98.20;;;;;;5092327;28;20871;-73
2022/03/21 01:21:58;;;;;;;1.50;1.20;;;8.70;98.20;;;;;;5087941;28;20515;-73
2022/03/21 01:24:26;;;;;;;1.50;1.10;;;8.60;98.20;;;;;;5087210;28;20499;-73
2022/03/21 01:26:53;;;;;;;1.50;1.20;;;8.60;98.20;;;;;;5088058;28;20933;-73
2022/03/21 01:29:20;;;;;;;1.50;1.20;;;8.60;98.20;;;;;;5088506;28;20468;-73
2022/03/21 01:31:46;;;;;;;1.50;1.20;;;8.60;98.20;;;;;;5087746;28;20464;-73
2022/03/21 01:34:15;;;;;;;1.77;1.50;;;8.60;98.20;;;;;;5088482;28;20879;-73
2022/03/21 01:36:42;;;;;;;1.50;1.17;;;8.60;98.20;;;;;;5088661;28;20460;-73
2022/03/21 01:39:09;;;;;;;1.50;1.20;;;8.50;98.20;;;;;;5088229;28;20487;-73
2022/03/21 01:41:36;;;;;;;1.50;1.30;;;8.50;98.20;;;;;;5091830;28;20488;-73
2022/03/21 01:44:05;;;;;;;1.50;1.20;;;8.50;98.20;;;;;;5091665;28;20882;-73
2022/03/21 01:46:32;;;;;;;1.50;1.20;;;8.50;98.20;;;;;;5087744;27;20592;-73
2022/03/21 01:49:00;;;;;;;1.50;1.20;;;8.40;98.20;;;;;;5101630;28;20475;-73
2022/03/21 01:51:28;;;;;;;1.50;1.20;;;8.40;98.20;;;;;;5091462;28;20456;-73
2022/03/21 01:56:41;;;;;;;1.50;1.20;;;8.30;98.20;;;;;;5091663;28;20517;-73
2022/03/21 01:59:09;;;;;;;1.50;1.40;;;8.20;98.20;;;;;;5091175;28;20841;-73
2022/03/21 02:01:36;;;;;;;1.50;1.20;;;8.20;98.20;;;;;;5090351;28;20481;-73
2022/03/21 02:04:03;;;;;;;1.50;1.30;;;8.10;98.20;;;;;;5090613;28;21010;-73
2022/03/21 02:06:32;;;;;;;1.50;1.20;;;8.00;98.20;;;;;;5091465;28;20502;-73
2022/03/21 02:09:00;;;;;;;1.50;1.20;;;8.00;98.20;;;;;;5092110;28;20471;-74
2022/03/21 02:11:27;;;;;;;1.50;1.20;;;7.90;98.20;;;;;;5088854;28;20988;-73
2022/03/21 02:13:56;;;;;;;1.50;1.20;;;7.90;98.20;;;;;;5086694;28;20460;-73
2022/03/21 02:16:23;;;;;;;1.50;1.20;;;7.90;98.20;;;;;;5090885;28;20461;-73
2022/03/21 02:18:50;;;;;;;1.50;1.20;;;7.80;98.20;;;;;;5083460;28;20460;-73
2022/03/21 02:21:24;;;;;;;1.50;1.20;;;7.80;98.20;;;;;;5081941;27;21093;-73
2022/03/21 02:24:00;;;;;;;1.50;1.30;;;7.70;98.20;;;;;;5099665;28;20955;-73
2022/03/21 02:26:30;;;;;;;1.50;1.23;;;7.70;98.20;;;;;;5090034;28;20467;-73
2022/03/21 02:28:59;;;;;;;1.50;1.20;;;7.70;98.20;;;;;;5090506;28;20456;-73
2022/03/21 02:31:27;;;;;;;1.50;1.20;;;7.70;98.20;;;;;;5090634;28;20548;-73
2022/03/21 02:33:55;;;;;;;1.50;1.20;;;7.60;98.20;;;;;;5090192;28;20456;-73
2022/03/21 02:36:23;;;;;;;1.50;1.20;;;7.60;98.20;;;;;;5085281;27;20482;-73
2022/03/21 02:38:51;;;;;;;1.50;1.20;;;7.60;98.20;;;;;;5100088;28;20457;-74
2022/03/21 02:41:18;;;;;;;1.50;1.27;;;7.50;98.20;;;;;;5088929;28;20476;-73
2022/03/21 02:43:54;;;;;;;1.50;1.30;;;7.50;98.20;;;;;;5090615;28;20465;-73
2022/03/21 02:46:21;;;;;;;1.50;1.30;;;7.50;98.20;;;;;;5090254;28;20460;-73
2022/03/21 02:48:48;;;;;;;1.50;1.20;;;7.50;98.20;;;;;;5089315;28;21156;-73
2022/03/21 02:51:16;;;;;;;1.50;1.20;;;7.40;98.20;;;;;;5088022;28;20448;-73
2022/03/21 02:53:45;;;;;;;1.57;1.30;;;7.40;98.20;;;;;;5088136;28;20647;-73
2022/03/21 02:56:12;;;;;;;1.50;1.20;;;7.40;98.20;;;;;;5080965;27;20471;-73
2022/03/21 02:58:38;;;;;;;1.60;1.37;;;7.30;98.20;;;;;;5087732;28;20854;-72
2022/03/21 03:01:11;;;;;;;1.50;1.20;;;7.20;98.20;;;;;;5080207;28;20915;-73
2022/03/21 03:03:39;;;;;;;1.50;1.30;;;7.20;98.20;;;;;;5087032;28;20524;-73
2022/03/21 03:06:06;;;;;;;1.50;1.30;;;7.10;98.20;;;;;;5090157;28;20467;-73
2022/03/21 03:08:33;;;;;;;1.50;1.30;;;7.10;98.20;;;;;;5089885;28;20456;-73
2022/03/21 03:11:00;;;;;;;1.50;1.20;;;7.00;98.20;;;;;;5088627;28;20479;-73
2022/03/21 03:13:27;;;;;;;1.50;1.20;;;7.00;98.20;;;;;;5088863;28;20460;-73
2022/03/21 03:15:55;;;;;;;1.57;1.33;;;6.90;98.20;;;;;;5089334;28;20495;-73
2022/03/21 03:18:24;;;;;;;1.50;1.20;;;6.90;98.20;;;;;;5089974;28;20673;-73
2022/03/21 03:20:52;;;;;;;1.50;1.30;;;6.90;98.20;;;;;;5089085;28;20464;-72
2022/03/21 03:23:19;;;;;;;1.50;1.30;;;6.80;98.20;;;;;;5085357;28;20859;-73
2022/03/21 03:25:46;;;;;;;1.50;1.30;;;6.70;98.20;;;;;;5089498;28;20480;-73
2022/03/21 03:28:13;;;;;;;1.57;1.40;;;6.70;98.20;;;;;;5089796;28;20460;-73
2022/03/21 03:30:41;;;;;;;1.50;1.30;;;6.70;98.20;;;;;;5085777;28;20533;-73
2022/03/21 03:33:08;;;;;;;1.50;1.30;;;6.70;98.20;;;;;;5089520;28;20464;-73
2022/03/21 03:35:37;;;;;;;1.50;1.30;;;6.70;98.20;;;;;;5089389;28;20746;-73
2022/03/21 03:38:04;;;;;;;1.50;1.20;;;6.70;98.20;;;;;;5088183;28;20459;-72
2022/03/21 03:40:31;;;;;;;1.50;1.20;;;6.60;98.20;;;;;;5089532;28;20464;-73
2022/03/21 03:42:58;;;;;;;1.50;1.20;;;6.60;98.20;;;;;;5093323;27;20990;-72
2022/03/21 03:45:25;;;;;;;1.50;1.20;;;6.60;98.20;;;;;;5083070;28;20483;-72
2022/03/21 03:47:52;;;;;;;1.50;1.30;;;6.50;98.20;;;;;;5085453;28;20448;-73
2022/03/21 03:50:19;;;;;;;1.50;1.30;;;6.50;98.20;;;;;;5087614;28;21002;-73
2022/03/21 03:52:47;;;;;;;1.53;1.33;;;6.50;98.20;;;;;;5087674;28;20444;-73
2022/03/21 03:55:15;;;;;;;1.50;1.20;;;6.50;98.20;;;;;;5088256;28;20852;-73
2022/03/21 03:57:42;;;;;;;1.50;1.30;;;6.50;98.20;;;;;;5089248;28;20471;-73
2022/03/21 04:00:10;;;;;;;1.50;1.30;;;6.50;98.20;;;;;;5090681;28;20463;-72
2022/03/21 04:05:18;;;;;;;1.50;1.20;;;6.60;98.20;;;;;;5088254;28;20479;-73
2022/03/21 04:07:46;;;;;;;1.50;1.40;;;6.60;98.20;;;;;;5088298;28;20956;-73
2022/03/21 04:10:13;;;;;;;1.53;1.30;;;6.70;98.20;;;;;;5087027;28;20465;-73
2022/03/21 04:12:40;;;;;;;1.60;1.40;;;6.70;98.20;;;;;;5087668;28;20464;-73
2022/03/21 04:15:08;;;;;;;1.50;1.23;;;6.70;98.20;;;;;;5087791;28;20485;-73
2022/03/21 04:17:35;;;;;;;1.50;1.20;;;6.70;98.20;;;;;;5088753;28;20521;-73
2022/03/21 04:20:02;;;;;;;1.57;1.40;;;6.70;98.20;;;;;;5086607;28;20867;-73
2022/03/21 04:22:29;;;;;;;1.50;1.37;;;6.70;98.20;;;;;;5087868;28;20511;-73
2022/03/21 04:24:57;;;;;;;1.50;1.30;;;6.70;98.20;;;;;;5086758;28;20487;-73
2022/03/21 04:27:24;;;;;;;1.50;1.20;;;6.70;98.20;;;;;;5077937;28;20477;-73
2022/03/21 04:29:51;;;;;;;1.50;1.30;;;6.70;98.20;;;;;;5091456;28;20463;-73
2022/03/21 04:32:18;;;;;;;2.33;2.13;;;6.70;98.20;;;;;;5088611;28;20464;-73
2022/03/21 04:34:45;;;;;;;1.50;1.30;;;6.70;98.20;;;;;;5087832;28;20488;-73
2022/03/21 04:37:12;;;;;;;1.50;1.30;;;6.70;98.20;;;;;;5088517;28;20456;-73
2022/03/21 04:39:42;;;;;;;1.50;1.30;;;6.60;98.20;;;;;;5088296;28;20471;-73
2022/03/21 04:42:10;;;;;;;1.50;1.30;;;6.60;98.20;;;;;;5087669;28;20492;-73
2022/03/21 04:44:39;;;;;;;1.50;1.30;;;6.60;98.20;;;;;;5087479;28;20591;-73
2022/03/21 04:47:06;;;;;;;1.50;1.30;;;6.50;98.20;;;;;;5082569;28;20480;-74
2022/03/21 04:49:33;;;;;;;1.50;1.30;;;6.50;98.20;;;;;;5087066;28;20742;-74
2022/03/21 04:52:00;;;;;;;1.60;1.50;;;6.40;98.20;;;;;;5086492;27;20483;-74
2022/03/21 04:54:28;;;;;;;1.50;1.30;;;6.40;98.20;;;;;;5091454;28;20829;-73
2022/03/21 04:56:55;;;;;;;1.57;1.30;;;6.40;98.20;;;;;;5086501;28;20467;-74
2022/03/21 04:59:23;;;;;;;1.50;1.30;;;6.40;98.20;;;;;;5087605;28;20465;-74
2022/03/21 05:01:51;;;;;;;1.53;1.30;;;6.30;98.20;;;;;;5087807;28;20495;-73
2022/03/21 05:04:19;;;;;;;1.50;1.30;;;6.30;98.20;;;;;;5087083;28;20481;-73
2022/03/21 05:06:46;;;;;;;1.53;1.30;;;6.30;98.20;;;;;;5087848;28;20854;-73
2022/03/21 05:09:12;;;;;;;1.50;1.30;;;6.30;98.20;;;;;;5087355;28;20472;-74
2022/03/21 05:11:40;;;;;;;1.50;1.30;;;6.20;98.20;;;;;;5087600;28;20456;-73
2022/03/21 05:14:07;;;;;;;1.57;1.30;;;6.20;98.20;;;;;;5088622;28;20533;-73
2022/03/21 05:16:35;;;;;;;1.53;1.40;;;6.20;98.20;;;;;;5091605;28;20468;-73
2022/03/21 05:19:02;;;;;;;1.50;1.30;;;6.10;98.20;;;;;;5091594;28;20464;-74
2022/03/21 05:21:29;;;;;;;1.50;1.30;;;6.10;98.20;;;;;;5090865;28;20460;-73
2022/03/21 05:32:10;;;;;;;1.53;1.27;;;5.90;98.20;;;;;;5091698;28;20475;-73
2022/03/21 05:37:21;;;;;;;1.60;1.30;;;5.80;98.20;;;;;;5093968;27;20643;-73
2022/03/21 05:42:37;;;;;;;1.53;1.40;;;5.70;98.20;;;;;;5080006;28;20755;-73
2022/03/21 05:45:04;;;;;;;1.60;1.43;;;5.70;98.20;;;;;;5091332;28;20495;-74
2022/03/21 05:48:50;;;;;;;1.53;1.40;;;5.60;98.20;;;;;;5090905;28;20781;-73
2022/03/21 05:50:19;;;;;;;1.53;1.30;;;5.60;98.20;;;;;;5089942;28;20548;-73
2022/03/21 05:52:45;;;;;;;1.60;1.40;;;5.60;98.20;;;;;;5090325;28;20543;-74
2022/03/21 05:55:12;;;;;;;1.57;1.30;;;5.60;98.20;;;;;;5090459;28;20823;-74
2022/03/21 05:57:39;;;;;;;1.53;1.30;;;5.60;98.20;;;;;;5084487;27;20484;-74
2022/03/21 06:00:22;;;;;;;1.53;1.30;;;5.60;98.20;;;;;;5088137;28;20535;-74
2022/03/21 06:02:51;;;;;;;1.50;1.30;;;5.60;98.20;;;;;;5090133;28;20980;-73
2022/03/21 06:05:18;;;;;;;1.60;1.40;;;5.60;98.20;;;;;;5091004;28;20891;-73
2022/03/21 06:07:46;;;;;;;1.60;1.37;;;5.60;98.20;;;;;;5088628;28;20964;-73
2022/03/21 06:10:13;;;;;;;1.53;1.30;;;5.60;98.20;;;;;;5088634;28;20971;-72
2022/03/21 06:12:40;;;;;;;1.60;1.50;;;5.70;98.20;;;;;;5088332;28;20463;-73
2022/03/21 06:15:08;;;;;;;1.50;1.33;;;5.70;98.20;;;;;;5088457;28;20476;-73
2022/03/21 06:17:39;;;;;;;1.50;1.30;;;5.70;98.20;;;;;;5076475;27;20488;-72
2022/03/21 06:20:09;;;;;;;1.57;1.37;;;5.80;98.20;;;;;;5082910;28;20457;-73
2022/03/21 06:22:36;;;;;;;1.53;1.30;;;5.80;98.20;;;;;;5095107;28;20934;-73
2022/03/21 06:25:03;;;;;;;1.53;1.30;;;5.90;98.20;;;;;;5091820;28;20477;-73
2022/03/21 06:27:30;;;;;;;1.60;1.40;;;5.90;98.20;;;;;;5089992;28;20804;-73
2022/03/21 06:29:57;;;;;;;1.53;1.43;;;6.00;98.20;;;;;;5089529;28;20471;-72
2022/03/21 06:32:27;;;;;;;1.50;1.30;;;6.10;98.20;;;;;;5087239;27;20476;-72
2022/03/21 06:34:54;;;;;;;1.57;1.30;;;6.10;98.20;;;;;;5091797;28;20492;-73
2022/03/21 06:37:22;;;;;;;1.60;1.40;;;6.20;98.20;;;;;;5090313;28;20475;-73
2022/03/21 06:39:49;;;;;;;1.53;1.30;;;6.30;98.20;;;;;;5089438;28;20456;-74
2022/03/21 06:42:16;;;;;;;1.50;1.20;;;6.40;98.20;;;;;;5088882;28;20487;-73
2022/03/21 06:44:44;;;;;;;1.50;1.30;;;6.60;98.20;;;;;;5095813;28;20482;-74
2022/03/21 06:47:11;;;;;;;1.53;1.30;;;6.70;98.20;;;;;;5091016;27;20475;-73
2022/03/21 06:49:38;;;;;;;1.50;1.40;;;6.90;98.20;;;;;;5088974;28;20460;-73
2022/03/21 06:52:08;;;;;;;1.50;1.10;;;7.00;98.20;;;;;;5088292;28;20452;-74
2022/03/21 06:54:36;;;;;;;1.50;1.30;;;7.20;98.20;;;;;;5086891;28;20545;-75
2022/03/21 06:57:04;;;;;;;1.53;1.30;;;7.40;98.20;;;;;;5092271;28;20836;-80
2022/03/21 06:59:31;;;;;;;1.50;1.30;;;7.60;98.20;;;;;;5092886;28;20975;-80
2022/03/21 07:01:57;;;;;;;1.50;1.30;;;7.80;98.20;;;;;;5091708;28;20484;-74
2022/03/21 07:04:25;;;;;;;1.50;1.30;;;7.90;98.20;;;;;;5088287;28;20487;-75
2022/03/21 07:06:52;;;;;;;1.70;1.60;;;8.10;98.20;;;;;;5087240;28;20883;-75
2022/03/21 07:09:19;;;;;;;1.50;1.30;;;8.30;98.20;;;;;;5088571;28;20461;-74
2022/03/21 07:11:48;;;;;;;1.50;1.30;;;8.50;98.20;;;;;;5086838;27;20570;-74
2022/03/21 07:14:14;;;;;;;1.50;1.27;;;8.70;98.20;;;;;;5096648;28;20492;-74
2022/03/21 07:16:41;;;;;;;1.50;1.20;;;8.90;98.20;;;;;;5089639;28;20830;-74
2022/03/21 07:19:08;;;;;;;1.50;1.30;;;9.00;98.20;;;;;;5089433;28;20468;-75
2022/03/21 07:21:35;;;;;;;1.50;1.20;;;9.20;98.20;;;;;;5089208;28;20468;-74
2022/03/21 07:24:01;;;;;;;1.50;1.10;;;9.30;97.50;;;;;;5088419;28;20488;-74
2022/03/21 07:26:28;;;;;;;1.53;1.20;;;9.40;96.70;;;;;;5089010;28;20844;-73
2022/03/21 07:28:56;;;;;;;1.50;1.17;;;9.50;97.20;;;;;;5089248;28;20464;-74
2022/03/21 07:31:23;;;;;;;1.50;1.00;;;9.70;96.90;;;;;;5083111;27;20971;-73
2022/03/21 07:33:50;;;;;;;1.50;1.10;;;9.80;95.30;;;;;;5098348;28;20453;-73
2022/03/21 07:36:18;;;;;;;1.50;1.10;;;9.90;93.90;;;;;;5091118;28;20543;-73
2022/03/21 07:38:45;;;;;;;1.50;1.20;;;10.00;93.30;;;;;;5092470;28;20449;-76
2022/03/21 07:41:12;;;;;;;1.50;1.10;;;10.10;92.70;;;;;;5081655;28;20495;-77
2022/03/21 07:43:39;;;;;;;1.50;1.20;;;10.20;92.70;;;;;;5090439;28;20493;-77
2022/03/21 07:48:52;;;;;;;1.50;1.20;;;10.40;90.80;;;;;;5095003;28;20447;-74
2022/03/21 07:51:19;;;;;;;1.50;1.30;;;10.50;89.80;;;;;;5094183;28;20488;-77
2022/03/21 07:53:46;;;;;;;1.50;1.20;;;10.60;89.70;;;;;;5089756;28;20540;-75
2022/03/21 07:56:13;;;;;;;1.50;1.30;;;10.70;88.50;;;;;;5089938;28;20452;-75
2022/03/21 07:58:40;;;;;;;1.53;1.40;;;10.80;89.40;;;;;;5094171;28;20925;-76
2022/03/21 08:01:09;;;;;;;1.50;1.10;;;10.90;87.60;;;;;;5094685;28;20514;-76
2022/03/21 08:03:36;;;;;;;1.60;1.23;;;10.90;87.60;;;;;;5094358;28;20546;-77
2022/03/21 08:06:03;;;;;;;1.50;1.20;;;11.00;87.40;;;;;;5092287;28;20484;-75
2022/03/21 08:08:29;;;;;;;1.50;1.00;;;11.10;86.40;;;;;;5092724;28;20571;-76
2022/03/21 08:10:57;;;;;;;1.50;1.00;;;11.20;85.70;;;;;;5096837;28;20460;-80
2022/03/21 08:13:25;;;;;;;1.50;1.10;;;11.40;85.40;;;;;;5088644;28;20961;-78
2022/03/21 08:15:52;;;;;;;3.20;2.80;;;11.60;85.10;;;;;;5090975;28;20484;-75
2022/03/21 08:18:20;;;;;;;1.50;1.00;;;11.80;85.20;;;;;;5093787;28;21082;-76
2022/03/21 08:20:47;;;;;;;1.50;1.30;;;11.90;83.30;;;;;;5093633;28;20958;-76
2022/03/21 08:23:15;;;;;;;2.00;1.80;;;12.00;82.00;;;;;;5090964;28;20685;-77
2022/03/21 08:25:45;;;;;;;1.60;1.40;;;12.10;82.10;;;;;;5095118;28;20489;-77
2022/03/21 08:28:14;;;;;;;1.50;1.00;;;12.40;82.30;;;;;;5096032;28;20980;-78
2022/03/21 08:30:42;;;;;;;1.50;1.10;;;12.60;82.10;;;;;;5093303;28;20834;-74
2022/03/21 08:33:11;;;;;;;1.50;1.00;;;12.70;81.20;;;;;;5093242;28;20498;-79
2022/03/21 08:35:41;;;;;;;3.20;2.90;;;12.80;79.30;;;;;;5092299;28;20988;-76
2022/03/21 08:38:10;;;;;;;1.50;1.00;;;12.90;79.70;;;;;;5092445;28;20463;-74
2022/03/21 08:40:40;;;;;;;2.00;1.57;;;13.00;79.10;;;;;;5091537;28;20534;-78
2022/03/21 08:43:08;;;;;;;2.53;2.33;;;13.30;79.30;;;;;;5093867;28;20538;-76
2022/03/21 08:45:35;;;;;;;2.63;2.43;;;13.40;77.90;;;;;;5092906;28;20504;-76
2022/03/21 08:48:02;;;;;;;1.60;1.27;;;13.50;76.90;;;;;;5090731;28;20532;-76
2022/03/21 08:50:30;;;;;;;1.77;1.67;;;13.60;76.70;;;;;;5092083;28;20468;-74
2022/03/21 08:52:58;;;;;;;2.40;2.20;;;13.70;76.40;;;;;;5096063;27;20518;-76
2022/03/21 08:55:25;;;;;;;1.50;1.10;;;13.80;76.20;;;;;;5086047;28;20484;-73
2022/03/21 08:57:52;;;;;;;4.80;2.60;;;14.00;75.80;;;;;;5086161;28;20849;-75
2022/03/21 09:00:19;;;;;;;1.47;1.03;;;14.10;76.30;;;;;;5088324;28;20464;-76
2022/03/21 09:02:48;;;;;;;2.70;2.27;;;14.20;75.70;;;;;;5089304;28;20631;-78
2022/03/21 09:05:16;;;;;;;1.50;1.00;;;14.40;74.90;;;;;;5090229;28;20628;-78
2022/03/21 09:07:43;;;;;;;1.50;1.00;;;14.50;74.70;;;;;;5090347;28;20619;-77
2022/03/21 09:10:14;;;;;;;1.50;0.93;;;14.60;73.50;;;;;;5092420;28;20456;-79
2022/03/21 09:12:42;;;;;;;1.50;1.10;;;14.80;74.30;;;;;;5091863;28;20475;-78
2022/03/21 09:15:09;;;;;;;3.00;2.80;;;15.00;74.90;;;;;;5089164;28;20600;-78
2022/03/21 09:17:37;;;;;;;3.00;2.80;;;15.20;74.60;;;;;;5093720;28;20563;-74
2022/03/21 09:20:05;;;;;;;2.37;1.87;;;15.40;73.20;;;;;;5091992;28;20460;-76
2022/03/21 09:22:32;;;;;;;1.50;1.00;;;15.60;73.70;;;;;;5088300;28;20465;-74
2022/03/21 09:24:59;;;;;;;1.50;1.00;;;15.70;72.50;;;;;;5089315;28;20533;-75
2022/03/21 09:27:28;;;;;;;1.60;1.30;;;15.80;71.50;;;;;;5089845;28;20904;-75
2022/03/21 09:29:55;;;;;;;1.50;1.00;;;15.80;71.50;;;;;;5097600;28;20976;-74
2022/03/21 09:32:22;;;;;;;1.50;1.00;;;15.80;71.00;;;;;;5099229;28;20494;-76
2022/03/21 09:34:49;;;;;;;2.00;1.37;;;15.90;72.40;;;;;;5087885;28;20507;-76
2022/03/21 09:37:16;;;;;;;1.47;1.00;;;16.10;72.30;;;;;;5089643;28;20525;-75
2022/03/21 09:39:43;;;;;;;1.50;1.00;;;16.20;72.10;;;;;;5089513;28;20452;-76
2022/03/21 09:42:10;;;;;;;1.50;0.90;;;16.40;71.20;;;;;;5090457;28;20535;-77
2022/03/21 09:44:39;;;;;;;1.50;0.90;;;16.50;71.60;;;;;;5090929;28;20484;-78
2022/03/21 09:49:47;;;;;;;1.50;1.00;;;16.60;70.60;;;;;;5089913;28;20461;-77
2022/03/21 09:52:16;;;;;;;2.60;2.40;;;16.70;70.20;;;;;;5090089;28;20566;-78
2022/03/21 09:54:43;;;;;;;1.90;1.73;;;16.90;70.00;;;;;;5091663;28;20502;-74
2022/03/21 09:57:10;;;;;;;1.50;0.90;;;17.00;69.00;;;;;;5090092;28;20499;-74
2022/03/21 09:59:37;;;;;;;1.50;1.00;;;17.10;69.00;;;;;;5091550;28;20643;-75
2022/03/21 10:02:07;;;;;;;1.50;1.10;;;17.20;69.20;;;;;;5093827;28;20456;-74
2022/03/21 10:04:34;;;;;;;1.50;0.90;;;17.20;69.00;;;;;;5092618;28;21035;-78
2022/03/21 10:07:01;;;;;;;1.70;1.53;;;17.30;68.10;;;;;;5096624;28;20464;-77
2022/03/21 10:09:28;;;;;;;1.50;0.90;;;17.40;68.90;;;;;;5093582;28;21073;-77
2022/03/21 10:11:57;;;;;;;1.50;0.93;;;17.40;68.70;;;;;;5096598;28;20465;-76
2022/03/21 10:14:26;;;;;;;1.50;1.00;;;17.60;68.60;;;;;;5098062;28;20479;-79
2022/03/21 10:16:55;;;;;;;1.50;0.90;;;17.70;68.90;;;;;;5096002;28;20467;-75
2022/03/21 10:19:24;;;;;;;1.57;1.20;;;17.90;68.20;;;;;;5097072;28;20555;-73
2022/03/21 10:22:06;;;;;;;1.50;1.00;;;18.00;69.10;;;;;;5091949;28;20461;-73
2022/03/21 10:24:40;;;;;;;1.50;0.90;;;18.30;67.50;;;;;;5092176;28;20484;-78
2022/03/21 10:27:08;;;;;;;3.73;2.80;;;18.30;66.90;;;;;;5094813;28;20967;-76
2022/03/21 10:29:50;;;;;;;11.53;2.70;;;18.40;67.10;;;;;;5093702;28;20464;-77
2022/03/21 10:32:31;;;;;;;2.43;1.87;;;18.40;67.30;;;;;;5089300;28;20956;-77
2022/03/21 10:35:02;;;;;;;1.60;1.33;;;18.30;67.60;;;;;;5095342;28;20510;-80
2022/03/21 10:37:41;;;;;;;1.50;0.90;;;18.40;69.10;;;;;;5092913;28;20464;-74
2022/03/21 10:40:21;;;;;;;1.50;1.00;;;18.50;68.20;;;;;;5093253;28;20456;-76
2022/03/21 10:42:59;;;;;;;1.60;1.37;;;18.60;67.00;;;;;;5094539;28;20464;-76
2022/03/21 10:45:41;;;;;;;1.50;0.90;;;18.80;67.00;;;;;;5091791;28;20501;-75
2022/03/21 10:48:10;;;;;;;1.50;0.90;;;18.80;66.90;;;;;;5089026;28;20452;-74
2022/03/21 10:50:41;;;;;;;1.50;0.90;;;18.80;67.30;;;;;;5086532;28;20472;-73
2022/03/21 10:53:14;;;;;;;2.37;2.17;;;19.00;68.80;;;;;;5089790;28;20453;-74
2022/03/21 10:55:43;;;;;;;1.50;1.00;;;19.20;67.40;;;;;;5091420;28;20510;-73
2022/03/21 10:58:10;;;;;;;1.60;1.27;;;19.30;66.70;;;;;;5090639;28;20540;-75
2022/03/21 11:00:38;;;;;;;1.40;0.90;;;19.40;66.10;;;;;;5090240;28;20551;-74
2022/03/21 11:03:09;;;;;;;1.50;0.90;;;19.40;67.00;;;;;;5091244;28;20835;-73
2022/03/21 11:05:39;;;;;;;1.60;1.30;;;19.50;65.50;;;;;;5090962;28;20581;-75
2022/03/21 11:08:08;;;;;;;1.50;0.90;;;19.60;66.20;;;;;;5089791;28;20492;-72
2022/03/21 11:10:36;;;;;;;1.70;1.20;;;19.70;66.50;;;;;;5090773;28;20456;-74
2022/03/21 11:13:05;;;;;;;1.50;0.83;;;19.70;65.30;;;;;;5091248;28;21039;-73
2022/03/21 11:15:33;;;;;;;2.13;1.93;;;19.80;67.60;;;;;;5091199;28;20520;-74
2022/03/21 11:18:01;;;;;;;1.50;0.90;;;20.00;67.80;;;;;;5090267;28;20483;-75
2022/03/21 11:20:29;;;;;;;1.50;0.90;;;20.10;65.10;;;;;;5089966;28;20963;-75
2022/03/21 11:22:58;;;;;;;1.47;0.90;;;20.10;65.30;;;;;;5089242;28;20464;-73
2022/03/21 11:25:29;;;;;;;1.83;1.37;;;20.20;65.60;;;;;;5087370;28;20485;-72
2022/03/21 11:28:28;;;;;;;4.23;1.43;;;20.10;64.70;;;;;;5089388;28;20926;-73
2022/03/21 11:31:09;;;;;;;3.20;1.87;;;20.10;65.10;;;;;;5084007;28;20669;-73
2022/03/21 11:33:41;;;;;;;1.80;1.03;;;20.00;66.30;;;;;;5089527;28;20471;-74
2022/03/21 11:36:11;;;;;;;1.50;0.90;;;20.20;67.10;;;;;;5089240;28;20464;-72
2022/03/21 11:38:45;;;;;;;1.47;0.90;;;20.30;66.40;;;;;;5089969;28;20851;-74
2022/03/21 11:41:15;;;;;;;2.33;1.30;;;20.50;65.80;;;;;;5088443;28;20468;-74
2022/03/21 11:43:42;;;;;;;1.50;0.90;;;20.60;65.50;;;;;;5089816;28;20490;-73
2022/03/21 11:46:25;;;;;;;1.50;0.90;;;20.60;65.20;;;;;;5088994;28;20464;-73
2022/03/21 11:48:53;;;;;;;3.40;1.83;;;20.70;66.10;;;;;;5083798;28;20780;-73
2022/03/21 11:51:25;;;;;;;1.47;0.90;;;20.90;66.40;;;;;;5090334;28;20463;-73
2022/03/21 11:53:54;;;;;;;1.60;1.20;;;20.90;65.10;;;;;;5085221;28;20471;-74
2022/03/21 11:56:52;;;;;;;1.50;1.20;;;20.80;65.40;;;;;;5088549;28;20969;-74
2022/03/21 11:59:49;;;;;;;1.60;1.37;;;20.90;66.70;;;;;;5088603;28;20460;-73
2022/03/21 12:02:55;;;;;;;1.50;1.00;;;21.10;66.20;;;;;;5087240;28;20459;-74
2022/03/21 12:05:56;;;;;;;1.50;0.90;;;21.30;65.80;;;;;;5086652;28;21217;-73
2022/03/21 12:08:38;;;;;;;1.50;0.87;;;21.20;65.90;;;;;;5086930;28;20455;-73
2022/03/21 12:11:07;;;;;;;1.47;0.90;;;21.20;66.20;;;;;;5081637;28;20559;-72
2022/03/21 12:13:47;;;;;;;1.50;0.90;;;21.10;64.90;;;;;;5088492;28;20471;-73
2022/03/21 12:16:21;;;;;;;1.47;0.90;;;21.00;63.80;;;;;;5085232;28;20460;-74
2022/03/21 12:19:02;;;;;;;1.50;1.13;;;20.90;65.60;;;;;;5088444;28;20494;-73
2022/03/21 12:21:29;;;;;;;1.50;1.20;;;21.00;64.50;;;;;;5088694;28;20994;-71
2022/03/21 12:24:14;;;;;;;1.60;1.27;;;20.90;65.20;;;;;;5087301;28;20527;-73
2022/03/21 12:26:54;;;;;;;1.50;0.90;;;21.00;66.20;;;;;;5085973;28;21125;-73
2022/03/21 12:29:35;;;;;;;1.47;0.90;;;21.00;65.70;;;;;;5087586;28;20559;-74
2022/03/21 12:32:25;;;;;;;1.50;1.00;;;20.90;65.80;;;;;;5087698;28;20456;-74
2022/03/21 12:34:52;;;;;;;1.43;0.90;;;20.90;66.00;;;;;;5087558;28;20537;-73
2022/03/21 12:37:40;;;;;;;1.60;1.00;;;20.90;66.10;;;;;;5088627;28;20485;-73
2022/03/21 12:40:11;;;;;;;1.50;0.90;;;21.00;66.40;;;;;;5088145;28;21089;-73
2022/03/21 12:42:44;;;;;;;1.50;1.00;;;21.10;66.40;;;;;;5088095;28;20460;-73
2022/03/21 12:45:18;;;;;;;1.50;1.00;;;21.30;66.50;;;;;;5088129;28;20488;-74
2022/03/21 12:47:45;;;;;;;1.47;0.90;;;21.30;65.80;;;;;;5088270;28;20706;-73
2022/03/21 12:50:19;;;;;;;1.50;1.07;;;21.40;65.70;;;;;;5086818;28;20461;-74
2022/03/21 12:52:53;;;;;;;1.47;0.90;;;21.30;66.20;;;;;;5087842;28;20550;-74
2022/03/21 12:55:20;;;;;;;1.83;1.57;;;21.20;69.00;;;;;;5085522;28;20472;-72
2022/03/21 12:57:56;;;;;;;1.50;1.00;;;21.40;67.40;;;;;;5087829;28;20471;-74
2022/03/21 13:00:26;;;;;;;1.47;1.03;;;21.50;67.60;;;;;;5088195;28;20964;-74
2022/03/21 13:02:55;;;;;;;1.47;0.90;;;21.80;67.80;;;;;;5087661;28;20456;-72
2022/03/21 13:10:56;;;;;;;1.50;0.90;;;22.10;66.60;;;;;;5087182;28;20467;-72
2022/03/21 13:13:24;;;;;;;1.50;0.90;;;22.10;65.10;;;;;;5086587;28;20968;-73
2022/03/21 13:16:05;;;;;;;1.50;1.00;;;22.10;65.60;;;;;;5085200;28;20464;-72
2022/03/21 13:18:39;;;;;;;1.47;0.90;;;22.10;65.50;;;;;;5087395;28;20932;-72
2022/03/21 13:21:07;;;;;;;1.43;0.90;;;22.20;66.50;;;;;;5086959;28;20961;-73
2022/03/21 13:23:34;;;;;;;1.47;0.90;;;22.30;65.70;;;;;;5087180;28;21548;-73
2022/03/21 13:26:12;;;;;;;1.47;0.97;;;22.30;65.70;;;;;;5078346;27;20483;-72
2022/03/21 13:28:40;;;;;;;1.50;0.90;;;22.40;65.30;;;;;;5081798;28;20945;-74
2022/03/21 13:31:11;;;;;;;1.47;0.80;;;22.50;66.20;;;;;;5086793;28;20467;-72
2022/03/21 13:33:39;;;;;;;1.50;0.90;;;22.60;65.70;;;;;;5087692;28;20547;-74